Oriana — ZCDU9 — position and weather

sailwx.info

Track history (hours):
 
Tides and Currents Weather Stations Pressure Air Temp Water Temp Dewpoint Dewpoint Depression Visibility Wind Speed Wind Dir Waves Ship Positions

Oriana (Bermuda)

Last reported at 2015-Jul-07 00:00 UTC. Time now 2015-Jul-07 02:26 UTC.
Position N 52°30' W 005°42'.

Length 261 m; beam 32.2 m; draft 8.2 m.

Type: Ship. MMSI: 310529000.

Wind from 200 at 28 knots

Waves 2.5 meters (8 feet), 3 second period

Barometer 1006.8 mb
Air temperature 14.0 ° C
Visibility: greater than 5.4 NM
Dewpoint 13.1 ° C
Water temperature 12.0 ° C

Date/timePositionNaut miles runAvg speedWind from/ knotsBaromVisibWave heightAir tempDewpointWater temp
2015-Jul-07 00:00N 52°30' W 005°42'71 3.1 200 / 281006.8 5.4 2.514.013.112.0
2015-Jul-06 01:13N 53°41' W 005°36'1116.4
2015-Jul-06 00:34N 53°51' W 005°30'1017.3
2015-Jul-06 00:00N 54°00' W 005°24'715.3 210 / 31013.810.8 0.513.012.112.5
2015-Jul-05 23:33N 54°07' W 005°22'1616.1
2015-Jul-05 22:33N 54°22' W 005°14'1715.9
2015-Jul-05 21:30N 54°39' W 005°18'1616.9
2015-Jul-05 20:34N 54°53' W 005°30'1716.8
2015-Jul-05 19:34N 55°08' W 005°45'1312.9
2015-Jul-05 18:33N 55°17' W 006°01'9 9.2
2015-Jul-05 17:33N 55°22' W 006°14'10 9.8
2015-Jul-05 16:33N 55°25' W 006°30'10 9.8
2015-Jul-05 15:34N 55°30' W 006°45'1010.2
2015-Jul-05 14:33N 55°35' W 007°00'1110.9
2015-Jul-05 13:34N 55°43' W 007°14'15514.1
2015-Jul-05 02:34N 58°12' W 005°57'1615.5
2015-Jul-05 01:33N 58°24' W 005°37'1615.7
2015-Jul-05 00:33N 58°36' W 005°18'1414.0
2015-Jul-04 23:34N 58°44' W 004°57'1413.8
2015-Jul-04 22:33N 58°44' W 004°30'1414.1
2015-Jul-04 21:33N 58°45' W 004°03'1413.8
2015-Jul-04 20:33N 58°45' W 003°36'1515.5
2015-Jul-04 19:33N 58°43' W 003°07'1414.1
2015-Jul-04 18:33N 58°47' W 002°40'1312.9
2015-Jul-04 17:33N 58°60' W 002°45'7 6.7
2015-Jul-04 16:32N 58°60' W 002°58'0 0.0
2015-Jul-04 15:30N 58°60' W 002°58'0 0.0
2015-Jul-04 14:33N 58°60' W 002°58'0 0.0
2015-Jul-04 13:33N 58°60' W 002°58'0 0.0
2015-Jul-04 12:33N 58°60' W 002°58'0 0.0
2015-Jul-04 11:33N 58°60' W 002°58'0 0.0
2015-Jul-04 10:31N 58°60' W 002°58'0 0.0
2015-Jul-04 09:33N 58°60' W 002°58'0 0.0
2015-Jul-04 08:33N 58°60' W 002°58'0 0.0
2015-Jul-04 07:33N 58°60' W 002°58'5 4.5
2015-Jul-04 06:33N 59°00' W 002°50'214 8.8
2015-Jul-03 06:19N 62°03' W 006°38'26410.8
2015-Jul-02 06:00N 65°36' W 012°30'   240 / 51014.010.8 0.5 6.2 5.8 6.0
2015-Jun-29 18:03N 64°14' W 022°07'510.9
2015-Jun-29 17:33N 64°11' W 021°56'3 2.9
2015-Jun-29 16:32N 64°09' W 021°52'0 0.0
2015-Jun-29 15:32N 64°09' W 021°52'0 0.0
2015-Jun-29 14:32N 64°09' W 021°52'0 0.0
2015-Jun-29 13:32N 64°09' W 021°52'0 0.0
2015-Jun-29 12:26N 64°09' W 021°52'0 0.0
2015-Jun-29 10:32N 64°09' W 021°52'0 0.0
2015-Jun-29 09:32N 64°09' W 021°52'0 0.0
2015-Jun-29 08:17N 64°09' W 021°52'0 0.0
2015-Jun-29 07:26N 64°09' W 021°52'2 1.9
2015-Jun-29 06:33N 64°11' W 021°54'  
Track history (hours):
 
Tides and Currents Weather Stations Pressure Air Temp Water Temp Dewpoint Dewpoint Depression Visibility Wind Speed Wind Dir Waves Ship Positions

Oriana (Bermuda)

Last reported at 2015-Jul-07 00:00 UTC. Time now 2015-Jul-07 02:26 UTC.
Position N 52°30' W 005°42'.

Length 261 m; beam 32.2 m; draft 8.2 m.

Type: Ship. MMSI: 310529000.

Wind from 200 at 28 knots

Waves 2.5 meters (8 feet), 3 second period

Barometer 1006.8 mb
Air temperature 14.0 ° C
Visibility: greater than 5.4 NM
Dewpoint 13.1 ° C
Water temperature 12.0 ° C

Date/timePositionNaut miles runAvg speedWind from/ knotsBaromVisibWave heightAir tempDewpointWater temp
2015-Jul-07 00:00N 52°30' W 005°42'71 3.1 200 / 281006.8 5.4 2.514.013.112.0
2015-Jul-06 01:13N 53°41' W 005°36'1116.4
2015-Jul-06 00:34N 53°51' W 005°30'1017.3
2015-Jul-06 00:00N 54°00' W 005°24'715.3 210 / 31013.810.8 0.513.012.112.5
2015-Jul-05 23:33N 54°07' W 005°22'1616.1
2015-Jul-05 22:33N 54°22' W 005°14'1715.9
2015-Jul-05 21:30N 54°39' W 005°18'1616.9
2015-Jul-05 20:34N 54°53' W 005°30'1716.8
2015-Jul-05 19:34N 55°08' W 005°45'1312.9
2015-Jul-05 18:33N 55°17' W 006°01'9 9.2
2015-Jul-05 17:33N 55°22' W 006°14'10 9.8
2015-Jul-05 16:33N 55°25' W 006°30'10 9.8
2015-Jul-05 15:34N 55°30' W 006°45'1010.2
2015-Jul-05 14:33N 55°35' W 007°00'1110.9
2015-Jul-05 13:34N 55°43' W 007°14'15514.1
2015-Jul-05 02:34N 58°12' W 005°57'1615.5
2015-Jul-05 01:33N 58°24' W 005°37'1615.7
2015-Jul-05 00:33N 58°36' W 005°18'1414.0
2015-Jul-04 23:34N 58°44' W 004°57'1413.8
2015-Jul-04 22:33N 58°44' W 004°30'1414.1
2015-Jul-04 21:33N 58°45' W 004°03'1413.8
2015-Jul-04 20:33N 58°45' W 003°36'1515.5
2015-Jul-04 19:33N 58°43' W 003°07'1414.1
2015-Jul-04 18:33N 58°47' W 002°40'1312.9
2015-Jul-04 17:33N 58°60' W 002°45'7 6.7
2015-Jul-04 16:32N 58°60' W 002°58'0 0.0
2015-Jul-04 15:30N 58°60' W 002°58'0 0.0
2015-Jul-04 14:33N 58°60' W 002°58'0 0.0
2015-Jul-04 13:33N 58°60' W 002°58'0 0.0
2015-Jul-04 12:33N 58°60' W 002°58'0 0.0
2015-Jul-04 11:33N 58°60' W 002°58'0 0.0
2015-Jul-04 10:31N 58°60' W 002°58'0 0.0
2015-Jul-04 09:33N 58°60' W 002°58'0 0.0
2015-Jul-04 08:33N 58°60' W 002°58'0 0.0
2015-Jul-04 07:33N 58°60' W 002°58'5 4.5
2015-Jul-04 06:33N 59°00' W 002°50'214 8.8
2015-Jul-03 06:19N 62°03' W 006°38'26410.8
2015-Jul-02 06:00N 65°36' W 012°30'   240 / 51014.010.8 0.5 6.2 5.8 6.0
2015-Jun-29 18:03N 64°14' W 022°07'510.9
2015-Jun-29 17:33N 64°11' W 021°56'3 2.9
2015-Jun-29 16:32N 64°09' W 021°52'0 0.0
2015-Jun-29 15:32N 64°09' W 021°52'0 0.0
2015-Jun-29 14:32N 64°09' W 021°52'0 0.0
2015-Jun-29 13:32N 64°09' W 021°52'0 0.0
2015-Jun-29 12:26N 64°09' W 021°52'0 0.0
2015-Jun-29 10:32N 64°09' W 021°52'0 0.0
2015-Jun-29 09:32N 64°09' W 021°52'0 0.0
2015-Jun-29 08:17N 64°09' W 021°52'0 0.0
2015-Jun-29 07:26N 64°09' W 021°52'2 1.9
2015-Jun-29 06:33N 64°11' W 021°54'  

Dump ship's entire track history